Time;durP1;ratioP1;P1;durP2;ratioP2;P2;SDS_P1;SDS_P2;PMS_P1;PMS_P2;Temp;Humidity;BMP_temperature;BMP_pressure;BME280_temperature;BME280_humidity;BME280_pressure;Samples;Min_cycle;Max_cycle;Signal;HPM_P1;HPM_P2
2022/12/27 00:01:51;;;;;;;15.93;3.80;;;;;;;;;;4997087;28;21391;-68
2022/12/27 00:04:17;;;;;;;11.10;3.50;;;;;;;;;;5000764;28;20694;-68
2022/12/27 00:06:42;;;;;;;10.77;3.60;;;;;;;;;;5013922;28;21317;-68
2022/12/27 00:09:08;;;;;;;10.67;2.93;;;;;;;;;;5003518;28;20214;-68
2022/12/27 00:11:33;;;;;;;10.27;3.30;;;;;;;;;;5002124;28;20745;-68
2022/12/27 00:14:03;;;;;;;11.63;3.40;;;;;;;;;;5016958;28;20233;-68
2022/12/27 00:16:29;;;;;;;11.50;3.50;;;;;;;;;;5004959;28;20254;-68
2022/12/27 00:18:55;;;;;;;11.07;3.47;;;;;;;;;;5014666;28;20278;-68
2022/12/27 00:21:21;;;;;;;12.33;3.63;;;;;;;;;;5010489;28;20218;-68
2022/12/27 00:23:49;;;;;;;9.63;3.37;;;;;;;;;;5014713;28;20293;-68
2022/12/27 00:26:27;;;;;;;9.93;3.07;;;;;;;;;;5008307;28;20229;-68
2022/12/27 00:28:53;;;;;;;9.33;3.70;;;;;;;;;;5010037;28;20625;-67
2022/12/27 00:31:20;;;;;;;10.73;3.23;;;;;;;;;;5007910;28;20190;-68
2022/12/27 00:33:48;;;;;;;12.43;3.60;;;;;;;;;;5008332;28;20723;-68
2022/12/27 00:36:16;;;;;;;12.37;3.67;;;;;;;;;;5009721;28;20277;-67
2022/12/27 00:38:42;;;;;;;12.10;3.57;;;;;;;;;;5011252;28;20183;-67
2022/12/27 00:41:08;;;;;;;12.97;3.90;;;;;;;;;;5014776;28;20889;-67
2022/12/27 00:43:34;;;;;;;9.87;3.53;;;;;;;;;;5007789;28;20561;-67
2022/12/27 00:45:59;;;;;;;7.40;2.97;;;;;;;;;;5012190;28;20202;-67
2022/12/27 00:48:25;;;;;;;12.03;3.30;;;;;;;;;;5007194;28;20214;-67
2022/12/27 00:50:57;;;;;;;15.53;3.80;;;;;;;;;;5008656;28;20197;-68
2022/12/27 00:53:22;;;;;;;8.63;3.50;;;;;;;;;;5000772;28;20195;-67
2022/12/27 00:55:47;;;;;;;12.03;4.00;;;;;;;;;;5007821;28;20197;-67
2022/12/27 00:58:13;;;;;;;14.27;4.33;;;;;;;;;;5003744;28;20277;-67
2022/12/27 01:00:38;;;;;;;13.27;3.87;;;;;;;;;;5006996;28;20336;-67
2022/12/27 01:03:03;;;;;;;9.37;3.83;;;;;;;;;;5008534;28;20705;-68
2022/12/27 01:05:29;;;;;;;14.00;3.93;;;;;;;;;;5000233;28;20280;-67
2022/12/27 01:07:54;;;;;;;15.37;5.13;;;;;;;;;;5008786;28;20198;-67
2022/12/27 01:10:19;;;;;;;13.03;3.50;;;;;;;;;;5006692;28;20306;-68
2022/12/27 01:12:45;;;;;;;12.63;3.90;;;;;;;;;;5008416;28;20187;-68
2022/12/27 01:15:11;;;;;;;16.47;4.20;;;;;;;;;;5007879;28;20210;-68
2022/12/27 01:17:36;;;;;;;8.33;3.40;;;;;;;;;;5007807;28;20194;-67
2022/12/27 01:20:02;;;;;;;12.00;4.00;;;;;;;;;;5009177;28;20265;-67
2022/12/27 01:22:28;;;;;;;12.77;4.60;;;;;;;;;;5000028;28;20317;-67
2022/12/27 01:24:53;;;;;;;15.00;3.97;;;;;;;;;;5008507;28;20290;-68
2022/12/27 01:27:18;;;;;;;9.60;4.30;;;;;;;;;;4999503;28;20229;-67
2022/12/27 01:29:44;;;;;;;9.53;4.00;;;;;;;;;;5008009;28;20210;-68
2022/12/27 01:32:09;;;;;;;11.97;4.00;;;;;;;;;;5009972;28;20567;-68
2022/12/27 01:34:35;;;;;;;13.60;4.30;;;;;;;;;;5011116;28;20203;-67
2022/12/27 01:37:00;;;;;;;12.97;4.17;;;;;;;;;;5001676;28;20358;-68
2022/12/27 01:39:25;;;;;;;15.50;4.70;;;;;;;;;;5007951;28;20219;-68
2022/12/27 01:47:44;;;;;;;15.90;5.00;;;;;;;;;;5006997;28;20187;-68
2022/12/27 01:50:34;;;;;;;12.23;4.20;;;;;;;;;;5009731;28;20212;-68
2022/12/27 01:53:18;;;;;;;11.20;4.60;;;;;;;;;;5004800;28;20192;-68
2022/12/27 01:55:45;;;;;;;13.63;4.63;;;;;;;;;;5005451;28;20226;-68
2022/12/27 01:58:37;;;;;;;17.67;4.83;;;;;;;;;;5007475;28;20294;-67
2022/12/27 02:01:04;;;;;;;13.43;4.60;;;;;;;;;;5000802;28;20626;-68
2022/12/27 02:03:52;;;;;;;12.03;4.90;;;;;;;;;;5004074;28;20233;-67
2022/12/27 02:06:20;;;;;;;10.13;4.60;;;;;;;;;;5006012;28;20203;-68
2022/12/27 02:08:47;;;;;;;12.03;4.57;;;;;;;;;;5006576;28;20427;-68
2022/12/27 02:11:13;;;;;;;14.20;5.07;;;;;;;;;;5000910;28;20622;-68
2022/12/27 02:13:42;;;;;;;9.73;5.00;;;;;;;;;;5007290;28;20191;-67
2022/12/27 02:16:17;;;;;;;14.43;4.90;;;;;;;;;;4997865;28;20183;-68
2022/12/27 02:18:44;;;;;;;18.43;5.50;;;;;;;;;;5004993;28;20187;-68
2022/12/27 02:21:43;;;;;;;13.70;5.00;;;;;;;;;;5006607;28;20277;-68
2022/12/27 02:24:32;;;;;;;15.57;5.27;;;;;;;;;;5004226;28;20266;-68
2022/12/27 02:27:06;;;;;;;16.77;5.57;;;;;;;;;;5007372;28;20282;-67
2022/12/27 02:29:58;;;;;;;17.07;5.30;;;;;;;;;;5000771;28;20218;-68
2022/12/27 02:32:57;;;;;;;16.67;5.97;;;;;;;;;;5006586;28;20195;-68
2022/12/27 02:35:54;;;;;;;14.77;4.90;;;;;;;;;;5008767;28;20190;-67
2022/12/27 02:38:26;;;;;;;14.13;5.20;;;;;;;;;;5009935;28;20614;-67
2022/12/27 02:55:38;;;;;;;17.93;5.60;;;;;;;;;;5006570;28;20253;-67
2022/12/27 02:58:27;;;;;;;17.10;5.60;;;;;;;;;;5008793;28;20191;-68
2022/12/27 03:04:24;;;;;;;14.57;4.83;;;;;;;;;;5013770;28;20193;-68
2022/12/27 03:07:30;;;;;;;11.47;4.50;;;;;;;;;;5017529;28;20229;-68
2022/12/27 03:16:15;;;;;;;15.30;4.33;;;;;;;;;;5004465;28;20213;-68
2022/12/27 03:19:01;;;;;;;12.97;4.50;;;;;;;;;;5014966;28;20218;-67
2022/12/27 03:27:16;;;;;;;13.43;4.37;;;;;;;;;;5007451;28;20650;-68
2022/12/27 03:35:22;;;;;;;9.07;3.90;;;;;;;;;;5011550;28;20313;-67
2022/12/27 03:38:02;;;;;;;9.60;4.20;;;;;;;;;;5004014;28;20195;-67
2022/12/27 03:43:34;;;;;;;13.70;4.23;;;;;;;;;;5008194;28;20233;-68
2022/12/27 03:46:32;;;;;;;10.70;4.67;;;;;;;;;;5008550;28;20492;-68
2022/12/27 03:49:34;;;;;;;10.53;4.13;;;;;;;;;;5000484;28;20202;-68
2022/12/27 03:52:08;;;;;;;8.77;3.97;;;;;;;;;;5008669;28;20244;-67
2022/12/27 03:54:38;;;;;;;10.03;3.80;;;;;;;;;;5007354;28;20198;-68
2022/12/27 03:57:08;;;;;;;9.23;3.23;;;;;;;;;;5003916;28;20727;-68
2022/12/27 03:59:33;;;;;;;10.70;3.93;;;;;;;;;;5006172;28;20273;-68
2022/12/27 04:02:00;;;;;;;14.87;4.40;;;;;;;;;;5009274;28;20218;-68
2022/12/27 04:04:25;;;;;;;11.23;3.67;;;;;;;;;;5010046;28;20210;-67
2022/12/27 04:06:51;;;;;;;9.40;3.37;;;;;;;;;;5011527;28;20195;-67
2022/12/27 04:36:36;;;;;;;8.80;4.03;;;;;;;;;;5009539;28;20197;-68
2022/12/27 04:39:02;;;;;;;10.47;4.30;;;;;;;;;;5004684;28;20194;-67
2022/12/27 04:55:18;;;;;;;12.63;4.37;;;;;;;;;;5008881;28;20414;-68
2022/12/27 04:57:43;;;;;;;12.63;4.70;;;;;;;;;;5006789;28;20712;-68
2022/12/27 05:02:53;;;;;;;13.60;4.87;;;;;;;;;;5002480;28;20190;-68
2022/12/27 05:05:20;;;;;;;11.83;4.90;;;;;;;;;;5007439;28;20924;-68
2022/12/27 05:15:57;;;;;;;12.53;5.03;;;;;;;;;;5008181;28;20194;-68
2022/12/27 05:18:23;;;;;;;12.87;5.50;;;;;;;;;;5007512;28;20253;-68
2022/12/27 05:20:49;;;;;;;14.80;5.43;;;;;;;;;;5004303;28;20634;-68
2022/12/27 05:25:59;;;;;;;20.37;5.80;;;;;;;;;;5004885;28;20285;-68
2022/12/27 05:28:24;;;;;;;10.90;5.90;;;;;;;;;;5006501;28;20671;-68
2022/12/27 05:30:49;;;;;;;17.17;5.50;;;;;;;;;;5003001;28;20199;-68
2022/12/27 05:33:15;;;;;;;11.70;5.90;;;;;;;;;;5008233;28;20696;-68
2022/12/27 05:35:41;;;;;;;17.47;6.70;;;;;;;;;;5003245;28;20200;-68
2022/12/27 05:38:06;;;;;;;19.37;6.50;;;;;;;;;;5002173;28;20183;-68
2022/12/27 05:40:32;;;;;;;20.63;7.20;;;;;;;;;;5005209;28;20187;-68
2022/12/27 05:42:59;;;;;;;18.53;6.53;;;;;;;;;;5004973;28;20559;-68
2022/12/27 05:45:24;;;;;;;15.63;6.30;;;;;;;;;;4996056;28;20679;-68
2022/12/27 05:47:49;;;;;;;17.83;6.70;;;;;;;;;;5002202;28;20199;-68
2022/12/27 05:50:15;;;;;;;12.27;6.67;;;;;;;;;;5007679;28;20613;-68
2022/12/27 05:52:40;;;;;;;22.63;7.33;;;;;;;;;;5007985;28;20199;-68
2022/12/27 05:55:06;;;;;;;19.20;6.90;;;;;;;;;;5006269;28;20195;-68
2022/12/27 05:57:32;;;;;;;17.27;7.50;;;;;;;;;;5000475;28;20186;-68
2022/12/27 05:59:57;;;;;;;18.50;7.40;;;;;;;;;;4991394;28;20631;-68
2022/12/27 06:02:23;;;;;;;17.30;7.17;;;;;;;;;;4996536;28;20241;-68
2022/12/27 06:04:48;;;;;;;17.53;7.57;;;;;;;;;;5007642;28;20193;-68
2022/12/27 06:07:14;;;;;;;16.83;8.00;;;;;;;;;;5017054;28;20205;-68
2022/12/27 06:09:40;;;;;;;19.80;7.07;;;;;;;;;;5025636;28;20202;-68
2022/12/27 06:12:05;;;;;;;15.30;7.23;;;;;;;;;;5021099;28;20667;-68
2022/12/27 06:14:31;;;;;;;14.13;7.10;;;;;;;;;;5024180;28;20194;-68
2022/12/27 06:16:56;;;;;;;22.73;7.53;;;;;;;;;;5020222;28;20204;-68
2022/12/27 06:19:22;;;;;;;25.40;7.83;;;;;;;;;;5022882;28;20325;-70
2022/12/27 06:21:47;;;;;;;17.43;7.87;;;;;;;;;;5022255;28;20213;-68
2022/12/27 06:24:13;;;;;;;16.57;7.80;;;;;;;;;;5023772;28;20279;-68
2022/12/27 06:26:38;;;;;;;21.87;7.53;;;;;;;;;;5027110;28;20194;-68
2022/12/27 06:29:04;;;;;;;16.10;8.07;;;;;;;;;;5022713;28;20311;-68
2022/12/27 06:31:29;;;;;;;18.93;7.70;;;;;;;;;;5020487;28;20196;-68
2022/12/27 06:33:55;;;;;;;17.20;7.90;;;;;;;;;;5021902;28;20204;-68
2022/12/27 06:36:25;;;;;;;22.80;8.03;;;;;;;;;;5025616;28;20252;-68
2022/12/27 06:38:50;;;;;;;20.50;9.23;;;;;;;;;;5022610;28;20201;-68
2022/12/27 06:41:17;;;;;;;24.83;8.73;;;;;;;;;;5021009;28;20428;-69
2022/12/27 06:43:44;;;;;;;22.77;8.83;;;;;;;;;;5003781;28;20198;-68
2022/12/27 06:46:12;;;;;;;19.67;8.83;;;;;;;;;;5020775;28;20203;-68
2022/12/27 06:48:38;;;;;;;20.23;8.27;;;;;;;;;;5022303;28;20681;-68
2022/12/27 06:51:05;;;;;;;25.80;9.27;;;;;;;;;;5025087;28;20285;-68
2022/12/27 06:53:31;;;;;;;18.47;8.67;;;;;;;;;;5022105;28;20212;-68
2022/12/27 06:55:56;;;;;;;20.40;10.03;;;;;;;;;;5009935;28;20685;-68
2022/12/27 06:58:21;;;;;;;25.03;8.83;;;;;;;;;;5020466;28;20428;-68
2022/12/27 07:00:47;;;;;;;19.67;8.53;;;;;;;;;;5018685;28;20650;-69
2022/12/27 07:03:13;;;;;;;25.20;8.90;;;;;;;;;;5019157;28;20198;-68
2022/12/27 07:05:38;;;;;;;20.50;9.00;;;;;;;;;;5021873;28;20216;-69
2022/12/27 07:08:04;;;;;;;17.77;7.77;;;;;;;;;;5019398;28;20273;-68
2022/12/27 07:10:30;;;;;;;22.03;8.40;;;;;;;;;;5022355;28;20217;-68
2022/12/27 07:12:56;;;;;;;27.30;8.93;;;;;;;;;;5018455;28;20256;-68
2022/12/27 07:15:21;;;;;;;25.00;9.03;;;;;;;;;;5022590;28;20272;-68
2022/12/27 07:17:47;;;;;;;22.20;8.87;;;;;;;;;;5010373;28;20564;-68
2022/12/27 07:20:12;;;;;;;23.83;9.07;;;;;;;;;;5002141;28;20468;-68
2022/12/27 07:22:37;;;;;;;18.03;9.37;;;;;;;;;;5017298;28;20269;-68
2022/12/27 07:25:04;;;;;;;26.57;9.10;;;;;;;;;;5014243;28;20198;-69
2022/12/27 07:27:32;;;;;;;18.03;8.47;;;;;;;;;;5014131;28;20289;-68
2022/12/27 07:29:57;;;;;;;26.97;9.17;;;;;;;;;;5014207;28;20218;-68
2022/12/27 07:32:23;;;;;;;20.40;9.40;;;;;;;;;;5012973;28;20194;-68
2022/12/27 07:34:48;;;;;;;26.73;9.27;;;;;;;;;;5004314;28;20186;-68
2022/12/27 07:37:13;;;;;;;22.73;9.00;;;;;;;;;;5001216;28;20445;-68
2022/12/27 07:39:39;;;;;;;24.60;9.40;;;;;;;;;;5002322;28;20571;-68
2022/12/27 07:42:04;;;;;;;21.70;9.43;;;;;;;;;;5007371;28;20282;-68
2022/12/27 07:44:30;;;;;;;24.87;9.70;;;;;;;;;;5001393;28;20229;-67
2022/12/27 07:46:55;;;;;;;23.53;8.67;;;;;;;;;;5023867;28;20253;-68
2022/12/27 07:49:21;;;;;;;25.17;9.93;;;;;;;;;;5022085;28;20738;-68
2022/12/27 07:51:46;;;;;;;20.10;9.27;;;;;;;;;;5004914;28;20653;-68
2022/12/27 07:54:12;;;;;;;19.60;8.47;;;;;;;;;;4999962;28;20301;-68
2022/12/27 07:56:37;;;;;;;24.57;8.93;;;;;;;;;;5004144;28;20498;-68
2022/12/27 07:59:02;;;;;;;17.47;8.77;;;;;;;;;;5007572;28;20215;-67
2022/12/27 08:02:02;;;;;;;24.83;9.30;;;;;;;;;;5007655;28;20237;-68
2022/12/27 08:04:19;;;;;;;19.43;8.77;;;;;;;;;;5007677;28;20206;-68
2022/12/27 08:06:44;;;;;;;23.07;9.40;;;;;;;;;;5007530;28;20187;-68
2022/12/27 08:09:14;;;;;;;30.40;8.83;;;;;;;;;;5008449;28;20219;-68
2022/12/27 08:11:39;;;;;;;22.20;8.80;;;;;;;;;;5005853;28;20569;-68
2022/12/27 08:14:05;;;;;;;19.53;8.33;;;;;;;;;;5009368;28;20281;-68
2022/12/27 08:16:30;;;;;;;21.63;7.70;;;;;;;;;;5002710;28;20598;-68
2022/12/27 08:18:56;;;;;;;21.57;9.43;;;;;;;;;;5009836;28;20191;-68
2022/12/27 08:21:22;;;;;;;20.30;8.07;;;;;;;;;;5009801;28;20206;-68
2022/12/27 08:23:48;;;;;;;23.97;9.07;;;;;;;;;;4997951;28;20585;-68
2022/12/27 08:26:13;;;;;;;20.03;9.47;;;;;;;;;;5020731;28;20186;-68
2022/12/27 08:28:39;;;;;;;20.27;9.50;;;;;;;;;;5009457;28;20222;-68
2022/12/27 08:31:06;;;;;;;19.43;8.27;;;;;;;;;;4997324;28;20194;-68
2022/12/27 08:33:32;;;;;;;23.27;9.03;;;;;;;;;;5010304;28;20216;-68
2022/12/27 08:36:01;;;;;;;23.17;8.03;;;;;;;;;;5004917;28;20191;-68
2022/12/27 08:38:27;;;;;;;20.57;8.40;;;;;;;;;;5011784;28;20256;-68
2022/12/27 08:40:52;;;;;;;19.77;7.50;;;;;;;;;;5010063;28;20543;-69
2022/12/27 08:43:18;;;;;;;21.33;7.77;;;;;;;;;;5022038;28;20190;-68
2022/12/27 08:45:44;;;;;;;21.67;7.97;;;;;;;;;;5006649;28;20190;-68
2022/12/27 08:48:09;;;;;;;22.53;7.37;;;;;;;;;;5014717;28;20209;-68
2022/12/27 08:50:34;;;;;;;21.43;6.87;;;;;;;;;;5008228;28;20222;-69
2022/12/27 08:53:02;;;;;;;19.37;7.13;;;;;;;;;;5010592;28;20208;-68
2022/12/27 08:55:29;;;;;;;27.40;9.33;;;;;;;;;;5005237;28;20237;-68
2022/12/27 08:57:58;;;;;;;23.67;6.97;;;;;;;;;;5002157;28;20205;-69
2022/12/27 09:00:25;;;;;;;17.33;7.13;;;;;;;;;;5004551;28;20203;-68
2022/12/27 09:02:51;;;;;;;21.97;6.90;;;;;;;;;;5004736;28;20194;-68
2022/12/27 09:05:17;;;;;;;25.10;7.00;;;;;;;;;;5004798;28;20209;-68
2022/12/27 09:07:42;;;;;;;18.40;6.33;;;;;;;;;;5003561;28;20646;-68
2022/12/27 09:10:08;;;;;;;16.73;6.93;;;;;;;;;;4995600;28;20218;-68
2022/12/27 09:12:33;;;;;;;20.07;6.90;;;;;;;;;;5000883;28;20617;-68
2022/12/27 09:14:59;;;;;;;20.70;6.87;;;;;;;;;;5002628;28;20191;-68
2022/12/27 09:17:24;;;;;;;20.80;7.50;;;;;;;;;;5001779;28;20297;-68
2022/12/27 09:19:50;;;;;;;21.50;6.60;;;;;;;;;;4999530;28;20186;-68
2022/12/27 09:22:15;;;;;;;21.33;6.70;;;;;;;;;;4997518;28;20230;-68
2022/12/27 09:24:41;;;;;;;13.97;6.00;;;;;;;;;;5004254;28;20186;-68
2022/12/27 09:27:06;;;;;;;20.53;6.93;;;;;;;;;;5003901;28;20216;-68
2022/12/27 09:29:32;;;;;;;13.87;5.77;;;;;;;;;;5003892;28;20245;-67
2022/12/27 09:31:57;;;;;;;18.77;6.20;;;;;;;;;;5001614;28;20210;-68
2022/12/27 09:34:22;;;;;;;20.43;6.33;;;;;;;;;;5008412;28;20186;-68
2022/12/27 09:36:48;;;;;;;16.53;6.60;;;;;;;;;;5001299;28;20244;-68
2022/12/27 09:39:15;;;;;;;17.73;6.27;;;;;;;;;;5014288;28;20236;-68
2022/12/27 09:42:11;;;;;;;33.20;7.17;;;;;;;;;;5016108;28;20190;-68
2022/12/27 09:45:05;;;;;;;29.10;6.03;;;;;;;;;;5013772;28;20260;-68
2022/12/27 09:47:47;;;;;;;12.43;6.07;;;;;;;;;;5014297;28;20557;-68
2022/12/27 09:50:17;;;;;;;18.60;7.10;;;;;;;;;;5008404;28;20222;-68
2022/12/27 09:52:58;;;;;;;20.37;7.20;;;;;;;;;;5009314;28;20621;-68
2022/12/27 09:55:36;;;;;;;18.83;6.67;;;;;;;;;;5009941;28;20187;-68
2022/12/27 09:58:12;;;;;;;17.90;6.67;;;;;;;;;;5014521;28;20186;-68
2022/12/27 10:00:38;;;;;;;20.60;5.90;;;;;;;;;;5013076;28;20682;-68
2022/12/27 10:03:04;;;;;;;19.17;6.10;;;;;;;;;;5015344;28;20222;-68
2022/12/27 10:05:33;;;;;;;17.47;6.07;;;;;;;;;;5016231;28;20293;-68
2022/12/27 10:08:07;;;;;;;18.90;5.80;;;;;;;;;;5021396;28;20221;-68
2022/12/27 10:10:46;;;;;;;16.17;5.97;;;;;;;;;;5017988;28;20211;-69
2022/12/27 10:13:17;;;;;;;19.50;6.97;;;;;;;;;;5021637;28;20190;-68
2022/12/27 10:16:01;;;;;;;15.33;6.23;;;;;;;;;;5015316;28;20230;-68
2022/12/27 10:18:29;;;;;;;18.10;6.90;;;;;;;;;;5015018;28;20209;-68
2022/12/27 10:21:11;;;;;;;16.27;5.60;;;;;;;;;;5013821;28;20678;-68
2022/12/27 10:23:40;;;;;;;18.30;7.17;;;;;;;;;;5019244;28;20277;-68
2022/12/27 10:26:12;;;;;;;15.70;6.97;;;;;;;;;;5013225;28;20244;-68
2022/12/27 10:28:43;;;;;;;20.30;6.60;;;;;;;;;;5015513;28;20217;-68
2022/12/27 10:31:20;;;;;;;13.47;6.10;;;;;;;;;;5022469;28;20191;-68
2022/12/27 10:33:47;;;;;;;13.47;6.43;;;;;;;;;;5014560;28;20221;-68
2022/12/27 10:36:17;;;;;;;13.50;5.73;;;;;;;;;;5014255;28;20542;-68
2022/12/27 10:38:43;;;;;;;16.30;6.70;;;;;;;;;;5015169;28;20186;-68
2022/12/27 10:41:36;;;;;;;19.17;6.23;;;;;;;;;;5012607;28;20188;-68
2022/12/27 10:44:01;;;;;;;11.33;6.33;;;;;;;;;;5016043;28;20257;-69
2022/12/27 10:46:29;;;;;;;15.03;6.70;;;;;;;;;;5019331;28;20294;-68
2022/12/27 10:49:03;;;;;;;16.50;6.90;;;;;;;;;;5019500;28;20686;-68
2022/12/27 10:51:38;;;;;;;13.30;6.30;;;;;;;;;;5020152;28;20466;-68
2022/12/27 10:54:10;;;;;;;18.37;7.53;;;;;;;;;;5020915;28;20327;-68
2022/12/27 10:56:38;;;;;;;16.57;7.67;;;;;;;;;;5018707;28;20193;-68
2022/12/27 10:59:05;;;;;;;18.87;7.70;;;;;;;;;;5020842;28;20197;-68
2022/12/27 11:01:32;;;;;;;23.13;9.27;;;;;;;;;;5013532;28;20207;-68
2022/12/27 11:04:17;;;;;;;18.77;9.27;;;;;;;;;;5009338;28;20644;-68
2022/12/27 11:06:43;;;;;;;24.13;9.67;;;;;;;;;;5012937;28;20243;-68
2022/12/27 11:09:32;;;;;;;26.53;10.33;;;;;;;;;;5017862;28;20311;-68
2022/12/27 11:12:10;;;;;;;18.50;9.43;;;;;;;;;;5016522;28;20218;-68
2022/12/27 11:14:36;;;;;;;24.43;10.10;;;;;;;;;;5017986;28;20194;-68
2022/12/27 11:17:07;;;;;;;19.67;10.10;;;;;;;;;;5018122;28;20193;-68
2022/12/27 11:19:33;;;;;;;23.53;10.57;;;;;;;;;;5018351;28;20707;-68
2022/12/27 11:22:04;;;;;;;19.00;9.90;;;;;;;;;;5019079;28;20181;-68
2022/12/27 11:24:29;;;;;;;23.17;10.27;;;;;;;;;;5017216;28;20214;-68
2022/12/27 11:26:58;;;;;;;17.50;9.43;;;;;;;;;;5019336;28;20215;-68
2022/12/27 11:29:26;;;;;;;18.60;10.43;;;;;;;;;;5015487;28;20240;-68
2022/12/27 11:31:53;;;;;;;16.20;9.57;;;;;;;;;;5013701;28;20250;-68
2022/12/27 11:34:31;;;;;;;19.83;10.20;;;;;;;;;;5015853;28;20228;-68
2022/12/27 11:37:13;;;;;;;20.77;11.30;;;;;;;;;;5016296;28;20670;-68
2022/12/27 11:39:43;;;;;;;20.17;10.87;;;;;;;;;;5016567;28;20289;-68
2022/12/27 11:42:21;;;;;;;24.00;10.87;;;;;;;;;;5014770;28;20269;-68
2022/12/27 11:45:01;;;;;;;21.70;10.23;;;;;;;;;;5023935;28;20224;-68
2022/12/27 11:47:36;;;;;;;18.17;10.07;;;;;;;;;;5022122;28;20265;-68
2022/12/27 11:50:20;;;;;;;15.40;10.30;;;;;;;;;;5025861;28;20205;-68
2022/12/27 11:53:11;;;;;;;20.90;10.33;;;;;;;;;;5018459;28;20189;-68
2022/12/27 11:55:45;;;;;;;16.83;10.57;;;;;;;;;;5003845;28;20199;-68
2022/12/27 11:58:24;;;;;;;23.77;10.43;;;;;;;;;;5005419;28;20202;-68
2022/12/27 12:01:27;;;;;;;19.23;10.93;;;;;;;;;;5012943;28;20221;-68
2022/12/27 12:04:02;;;;;;;19.63;10.50;;;;;;;;;;5021752;28;20182;-68
2022/12/27 12:06:41;;;;;;;18.13;10.90;;;;;;;;;;5016924;28;20259;-67
2022/12/27 12:09:40;;;;;;;19.93;10.13;;;;;;;;;;5005551;28;20202;-66
2022/12/27 12:12:14;;;;;;;22.00;11.57;;;;;;;;;;5001054;28;20336;-69
2022/12/27 12:14:54;;;;;;;18.50;10.33;;;;;;;;;;5009490;28;20676;-66
2022/12/27 12:17:35;;;;;;;18.80;10.43;;;;;;;;;;5005592;28;20201;-66
2022/12/27 12:20:20;;;;;;;21.77;9.83;;;;;;;;;;5004444;28;20245;-66
2022/12/27 12:23:05;;;;;;;21.97;10.67;;;;;;;;;;5000006;28;20226;-69
2022/12/27 12:25:43;;;;;;;21.90;10.77;;;;;;;;;;5005116;28;20252;-67
2022/12/27 12:28:14;;;;;;;17.67;10.67;;;;;;;;;;5002782;28;20186;-67
2022/12/27 12:31:08;;;;;;;20.73;10.73;;;;;;;;;;5006479;28;20478;-67
2022/12/27 12:33:36;;;;;;;23.03;10.57;;;;;;;;;;5007123;28;20533;-66
2022/12/27 12:36:20;;;;;;;15.73;10.27;;;;;;;;;;5002078;28;20245;-67
2022/12/27 12:38:54;;;;;;;21.53;10.47;;;;;;;;;;5012802;28;20179;-68
2022/12/27 12:41:50;;;;;;;17.03;9.93;;;;;;;;;;5007848;28;20193;-67
2022/12/27 12:44:30;;;;;;;18.90;10.20;;;;;;;;;;5004619;28;20341;-68
2022/12/27 12:47:17;;;;;;;23.00;10.10;;;;;;;;;;5001737;28;20213;-68
2022/12/27 12:49:56;;;;;;;17.43;9.77;;;;;;;;;;5004414;28;20222;-67
2022/12/27 12:52:30;;;;;;;19.00;10.07;;;;;;;;;;5010287;28;20595;-68
2022/12/27 12:55:36;;;;;;;20.27;10.07;;;;;;;;;;5006671;28;20191;-68
2022/12/27 12:58:06;;;;;;;14.57;9.60;;;;;;;;;;5001306;28;20282;-68
2022/12/27 13:00:53;;;;;;;19.67;9.13;;;;;;;;;;4998945;28;20253;-68
2022/12/27 13:03:45;;;;;;;16.37;9.43;;;;;;;;;;4999550;28;20270;-67
2022/12/27 13:06:49;;;;;;;15.00;8.77;;;;;;;;;;5003606;28;20176;-66
2022/12/27 13:09:40;;;;;;;17.70;9.37;;;;;;;;;;5004723;28;20206;-67
2022/12/27 13:12:30;;;;;;;20.97;9.23;;;;;;;;;;5004285;28;20574;-67
2022/12/27 13:15:01;;;;;;;16.77;9.60;;;;;;;;;;5010255;28;20185;-66
2022/12/27 13:17:46;;;;;;;13.10;8.10;;;;;;;;;;4995694;28;20274;-66
2022/12/27 13:20:32;;;;;;;16.13;8.53;;;;;;;;;;5005685;28;20178;-67
2022/12/27 13:23:09;;;;;;;15.87;8.50;;;;;;;;;;5004585;28;20249;-67
2022/12/27 13:25:57;;;;;;;18.70;9.00;;;;;;;;;;5012893;28;20211;-67
2022/12/27 13:28:52;;;;;;;16.53;8.67;;;;;;;;;;5001957;28;20631;-67
2022/12/27 13:31:47;;;;;;;16.77;8.73;;;;;;;;;;4997455;28;20576;-68
2022/12/27 13:34:32;;;;;;;18.07;9.03;;;;;;;;;;5001881;28;20198;-68
2022/12/27 13:37:54;;;;;;;14.07;7.83;;;;;;;;;;5009282;28;20197;-67
2022/12/27 13:40:50;;;;;;;17.73;7.70;;;;;;;;;;4952888;28;20189;-69
2022/12/27 13:43:35;;;;;;;14.10;6.57;;;;;;;;;;5004091;28;20552;-68
2022/12/27 13:46:22;;;;;;;12.63;6.27;;;;;;;;;;4997843;28;20579;-67
2022/12/27 13:49:16;;;;;;;16.40;5.40;;;;;;;;;;4999024;28;20265;-67
2022/12/27 13:51:55;;;;;;;12.00;5.57;;;;;;;;;;4991909;28;20184;-67
2022/12/27 13:54:48;;;;;;;12.37;5.00;;;;;;;;;;5001166;28;20690;-68
2022/12/27 13:57:50;;;;;;;12.50;4.70;;;;;;;;;;4996615;28;20569;-68
2022/12/27 14:00:17;;;;;;;10.60;4.70;;;;;;;;;;5004635;28;20718;-67
2022/12/27 14:03:17;;;;;;;15.03;4.70;;;;;;;;;;5002450;28;20243;-67
2022/12/27 14:06:01;;;;;;;10.23;4.33;;;;;;;;;;5001661;28;20280;-68
2022/12/27 14:08:46;;;;;;;15.50;5.37;;;;;;;;;;5002382;28;20273;-67
2022/12/27 14:11:25;;;;;;;11.83;4.53;;;;;;;;;;5005887;28;20215;-67
2022/12/27 14:13:51;;;;;;;13.77;4.27;;;;;;;;;;5009627;28;20255;-67
2022/12/27 14:16:36;;;;;;;7.83;4.00;;;;;;;;;;5005523;28;20642;-68
2022/12/27 14:19:18;;;;;;;15.93;4.67;;;;;;;;;;5002779;28;20241;-68
2022/12/27 14:21:57;;;;;;;12.83;4.10;;;;;;;;;;5004661;28;21494;-67
2022/12/27 14:25:08;;;;;;;7.87;4.37;;;;;;;;;;5011652;28;20203;-69
2022/12/27 14:28:02;;;;;;;12.50;4.23;;;;;;;;;;4987402;28;20241;-67
2022/12/27 14:30:59;;;;;;;10.20;3.77;;;;;;;;;;5007891;28;20218;-67
2022/12/27 14:33:42;;;;;;;10.70;4.17;;;;;;;;;;5010965;28;20203;-68
2022/12/27 14:37:03;;;;;;;7.23;3.33;;;;;;;;;;5019332;28;20182;-67
2022/12/27 14:39:50;;;;;;;9.20;4.23;;;;;;;;;;5021852;28;20193;-67
2022/12/27 14:42:43;;;;;;;8.70;3.93;;;;;;;;;;5018037;28;20221;-67
2022/12/27 14:45:55;;;;;;;11.23;3.80;;;;;;;;;;5019939;28;20187;-66
2022/12/27 14:48:29;;;;;;;12.70;4.07;;;;;;;;;;5018334;28;20187;-67
2022/12/27 14:51:07;;;;;;;11.17;3.27;;;;;;;;;;5025259;28;20697;-67
2022/12/27 14:54:13;;;;;;;10.13;3.97;;;;;;;;;;5010648;28;20191;-67
2022/12/27 14:57:14;;;;;;;9.23;3.53;;;;;;;;;;4967251;28;20188;-66
2022/12/27 14:59:51;;;;;;;11.40;4.30;;;;;;;;;;5016086;28;20618;-66
2022/12/27 15:02:52;;;;;;;12.57;4.00;;;;;;;;;;5009880;28;20226;-66
2022/12/27 15:05:40;;;;;;;13.27;3.93;;;;;;;;;;5016720;28;20198;-67
2022/12/27 15:08:39;;;;;;;11.50;4.17;;;;;;;;;;5026365;28;20596;-68
2022/12/27 15:11:11;;;;;;;12.73;3.90;;;;;;;;;;5015783;28;20285;-68
2022/12/27 15:13:42;;;;;;;12.47;4.87;;;;;;;;;;5013347;28;20195;-68
2022/12/27 15:16:32;;;;;;;12.80;4.53;;;;;;;;;;5013286;28;20193;-68
2022/12/27 15:19:30;;;;;;;12.53;3.87;;;;;;;;;;5007825;28;20186;-68
2022/12/27 15:22:09;;;;;;;9.53;4.23;;;;;;;;;;5008544;28;20225;-66
2022/12/27 15:25:03;;;;;;;13.17;4.80;;;;;;;;;;5006664;28;20205;-67
2022/12/27 15:27:42;;;;;;;10.80;3.87;;;;;;;;;;5013977;28;20273;-66
2022/12/27 15:30:31;;;;;;;16.43;4.37;;;;;;;;;;5031537;28;20275;-67
2022/12/27 15:33:25;;;;;;;7.47;3.90;;;;;;;;;;5013438;28;20199;-68
2022/12/27 15:36:01;;;;;;;11.30;4.07;;;;;;;;;;5012279;28;20192;-66
2022/12/27 15:38:44;;;;;;;13.57;4.70;;;;;;;;;;5012105;28;20201;-66
2022/12/27 15:41:41;;;;;;;10.17;4.57;;;;;;;;;;5010894;28;20290;-66
2022/12/27 15:44:24;;;;;;;12.20;4.50;;;;;;;;;;5014768;28;20551;-67
2022/12/27 15:47:19;;;;;;;9.40;3.90;;;;;;;;;;5002758;28;20558;-66
2022/12/27 15:49:53;;;;;;;10.03;4.03;;;;;;;;;;5009807;28;20272;-66
2022/12/27 15:52:36;;;;;;;17.03;4.50;;;;;;;;;;5009774;28;20285;-68
2022/12/27 15:55:18;;;;;;;9.80;4.77;;;;;;;;;;5006551;28;20191;-66
2022/12/27 15:58:17;;;;;;;12.80;4.13;;;;;;;;;;5002325;28;20190;-66
2022/12/27 16:00:44;;;;;;;14.07;4.00;;;;;;;;;;4999751;28;20209;-67
2022/12/27 16:03:31;;;;;;;9.30;4.33;;;;;;;;;;5005437;28;20205;-66
2022/12/27 16:05:56;;;;;;;9.97;4.73;;;;;;;;;;5009313;28;20267;-67
2022/12/27 16:08:28;;;;;;;11.20;3.80;;;;;;;;;;4999872;28;20203;-67
2022/12/27 16:10:54;;;;;;;11.07;4.07;;;;;;;;;;4995617;28;20223;-66
2022/12/27 16:13:30;;;;;;;10.47;4.47;;;;;;;;;;5016954;28;20520;-66
2022/12/27 16:15:56;;;;;;;10.83;4.00;;;;;;;;;;5003962;28;20194;-67
2022/12/27 16:18:21;;;;;;;9.80;3.97;;;;;;;;;;5000249;28;20195;-66
2022/12/27 16:20:59;;;;;;;8.90;3.77;;;;;;;;;;5005612;28;20589;-66
2022/12/27 16:23:36;;;;;;;10.67;4.60;;;;;;;;;;5010314;28;20248;-67
2022/12/27 16:26:07;;;;;;;10.67;3.90;;;;;;;;;;4998569;28;20288;-67
2022/12/27 16:28:35;;;;;;;12.47;4.00;;;;;;;;;;5009203;28;20190;-67
2022/12/27 16:31:06;;;;;;;10.47;4.33;;;;;;;;;;5011228;28;20183;-66
2022/12/27 16:33:41;;;;;;;8.40;3.93;;;;;;;;;;5002579;28;20270;-66
2022/12/27 16:36:16;;;;;;;9.40;4.20;;;;;;;;;;5006221;28;20198;-66
2022/12/27 16:38:47;;;;;;;9.87;3.90;;;;;;;;;;5005893;28;20710;-66
2022/12/27 16:41:18;;;;;;;10.50;3.83;;;;;;;;;;5003625;28;20194;-67
2022/12/27 16:43:53;;;;;;;10.30;3.90;;;;;;;;;;5008156;28;20246;-67
2022/12/27 16:46:24;;;;;;;10.50;4.00;;;;;;;;;;5004229;28;20198;-67
2022/12/27 16:49:23;;;;;;;9.77;3.40;;;;;;;;;;4998988;28;20188;-67
2022/12/27 16:52:07;;;;;;;11.60;4.17;;;;;;;;;;5009218;28;20206;-67